createdAt,value
2018-03-04T00:00:33.962Z,37.35
2018-03-04T00:03:01.464Z,38.70
2018-03-04T00:05:29.127Z,39.60
2018-03-04T00:07:56.676Z,40.33
2018-03-04T00:10:24.263Z,41.05
2018-03-04T00:12:51.820Z,39.40
2018-03-04T00:15:19.375Z,35.63
2018-03-04T00:17:46.902Z,37.15
2018-03-04T00:20:14.516Z,39.70
2018-03-04T00:22:42.127Z,38.72
2018-03-04T00:25:09.827Z,37.72
2018-03-04T00:27:37.482Z,37.65
2018-03-04T00:30:05.102Z,37.10
2018-03-04T00:32:40.772Z,33.83
2018-03-04T00:35:08.280Z,36.70
2018-03-04T00:37:38.223Z,36.15
2018-03-04T00:40:05.848Z,32.00
2018-03-04T00:42:33.396Z,33.85
2018-03-04T00:45:00.936Z,31.10
2018-03-04T00:47:28.483Z,32.22
2018-03-04T00:49:56.082Z,34.47
2018-03-04T00:52:23.847Z,34.00
2018-03-04T00:54:51.421Z,32.60
2018-03-04T00:57:19.039Z,32.13
2018-03-04T00:59:46.614Z,34.15
2018-03-04T01:02:14.143Z,32.72
2018-03-04T01:04:41.724Z,32.78
2018-03-04T01:07:09.314Z,30.60
2018-03-04T01:09:36.874Z,31.33
2018-03-04T01:12:04.448Z,30.88
2018-03-04T01:14:32.893Z,32.35
2018-03-04T01:17:00.435Z,30.37
2018-03-04T01:19:28.113Z,31.75
2018-03-04T01:21:55.681Z,31.50
2018-03-04T01:24:23.269Z,30.23
2018-03-04T01:26:50.797Z,32.70
2018-03-04T01:29:18.327Z,29.90
2018-03-04T01:31:46.639Z,33.05
2018-03-04T01:34:14.238Z,29.45
2018-03-04T01:36:42.576Z,31.65
2018-03-04T01:39:10.094Z,31.25
2018-03-04T01:41:37.657Z,35.00
2018-03-04T01:44:05.252Z,31.55
2018-03-04T01:46:32.807Z,34.33
2018-03-04T01:49:00.343Z,32.20
2018-03-04T01:54:27.114Z,32.72
2018-03-04T01:56:54.893Z,32.40
2018-03-04T01:59:22.501Z,35.25
2018-03-04T02:01:50.087Z,32.40
2018-03-04T02:04:17.673Z,30.30
2018-03-04T02:06:45.265Z,33.75
2018-03-04T02:09:13.631Z,33.47
2018-03-04T02:11:41.204Z,30.27
2018-03-04T02:14:08.769Z,30.33
2018-03-04T02:16:37.116Z,32.22
2018-03-04T02:19:04.635Z,34.88
2018-03-04T02:21:32.235Z,36.00
2018-03-04T02:23:59.820Z,34.25
2018-03-04T02:26:27.371Z,33.13
2018-03-04T02:28:54.914Z,31.35
2018-03-04T02:31:22.506Z,32.95
2018-03-04T02:33:50.952Z,31.50
2018-03-04T02:36:18.488Z,30.50
2018-03-04T02:38:46.041Z,30.15
2018-03-04T02:41:14.453Z,32.33
2018-03-04T02:43:42.084Z,32.45
2018-03-04T02:46:09.638Z,32.15
2018-03-04T02:48:37.264Z,30.70
2018-03-04T02:51:04.954Z,30.23
2018-03-04T02:53:32.486Z,31.50
2018-03-04T02:56:00.033Z,29.15
2018-03-04T02:58:27.576Z,27.87
2018-03-04T03:00:55.249Z,29.95
2018-03-04T03:03:22.780Z,31.73
2018-03-04T03:05:50.317Z,30.17
2018-03-04T03:08:18.833Z,27.83
2018-03-04T03:10:46.350Z,30.35
2018-03-04T03:13:14.663Z,31.50
2018-03-04T03:15:42.265Z,27.87
2018-03-04T03:18:10.710Z,29.15
2018-03-04T03:20:38.296Z,30.92
2018-03-04T03:23:07.582Z,28.30
2018-03-04T03:25:35.160Z,26.92
2018-03-04T03:28:02.790Z,29.02
2018-03-04T03:30:30.324Z,27.05
2018-03-04T03:32:57.911Z,27.60
2018-03-04T03:35:26.261Z,25.02
2018-03-04T03:37:53.884Z,25.70
2018-03-04T03:40:22.266Z,27.50
2018-03-04T03:42:50.090Z,26.75
2018-03-04T03:45:17.648Z,26.50
2018-03-04T03:47:46.035Z,23.92
2018-03-04T03:50:13.579Z,26.23
2018-03-04T03:52:41.294Z,25.85
2018-03-04T03:55:09.872Z,25.40
2018-03-04T03:57:37.391Z,25.20
2018-03-04T04:00:05.013Z,25.73
2018-03-04T04:02:32.605Z,25.08
2018-03-04T04:05:00.175Z,26.30
2018-03-04T04:07:28.864Z,26.52
2018-03-04T04:09:56.459Z,25.10
2018-03-04T04:12:24.080Z,24.85
2018-03-04T04:14:51.708Z,26.35
2018-03-04T04:17:19.396Z,25.33
2018-03-04T04:19:46.984Z,22.73
2018-03-04T04:22:14.555Z,23.58
2018-03-04T04:24:42.206Z,21.85
2018-03-04T04:27:09.889Z,23.62
2018-03-04T04:29:38.249Z,21.35
2018-03-04T04:32:06.031Z,24.60
2018-03-04T04:34:33.594Z,22.05
2018-03-04T04:37:01.210Z,22.35
2018-03-04T04:39:28.808Z,22.37
2018-03-04T04:41:56.341Z,22.40
2018-03-04T04:44:24.002Z,19.50
2018-03-04T04:46:52.546Z,22.80
2018-03-04T04:49:20.883Z,21.27
2018-03-04T04:51:48.606Z,21.37
2018-03-04T04:54:16.964Z,20.67
2018-03-04T04:56:44.516Z,24.05
2018-03-04T04:59:12.070Z,21.80
2018-03-04T05:01:39.742Z,20.88
2018-03-04T05:04:07.394Z,19.42
2018-03-04T05:06:34.941Z,20.35
2018-03-04T05:09:03.307Z,21.27
2018-03-04T05:11:30.861Z,22.23
2018-03-04T05:13:58.449Z,22.02
2018-03-04T05:16:26.832Z,22.80
2018-03-04T05:18:55.249Z,21.25
2018-03-04T05:21:22.805Z,20.02
2018-03-04T05:23:50.423Z,20.83
2018-03-04T05:26:18.023Z,21.30
2018-03-04T05:28:45.671Z,20.23
2018-03-04T05:31:13.321Z,19.30
2018-03-04T05:33:40.981Z,19.48
2018-03-04T05:36:08.604Z,20.40
2018-03-04T05:38:36.234Z,19.58
2018-03-04T05:41:04.611Z,18.73
2018-03-04T05:43:32.266Z,21.52
2018-03-04T05:45:59.862Z,19.42
2018-03-04T05:48:27.458Z,20.42
2018-03-04T05:50:55.841Z,18.77
2018-03-04T05:53:23.470Z,20.02
2018-03-04T05:55:51.017Z,17.42
2018-03-04T05:58:19.374Z,17.12
2018-03-04T06:00:46.993Z,16.52
2018-03-04T06:03:14.555Z,16.35
2018-03-04T06:05:42.939Z,16.12
2018-03-04T06:08:10.510Z,18.33
2018-03-04T06:10:38.136Z,15.45
2018-03-04T06:13:05.747Z,17.15
2018-03-04T06:15:34.153Z,15.40
2018-03-04T06:18:01.774Z,16.10
2018-03-04T06:20:29.331Z,15.55
2018-03-04T06:22:58.387Z,14.75
2018-03-04T06:25:25.923Z,19.23
2018-03-04T06:27:53.477Z,16.42
2018-03-04T06:30:21.196Z,16.37
2018-03-04T06:32:48.694Z,17.87
2018-03-04T06:35:16.998Z,14.85
2018-03-04T06:37:44.902Z,14.63
2018-03-04T06:40:12.576Z,14.50
2018-03-04T06:42:40.140Z,15.25
2018-03-04T06:45:08.548Z,13.62
2018-03-04T06:47:36.111Z,15.18
2018-03-04T06:50:03.717Z,15.85
2018-03-04T06:52:31.288Z,13.95
2018-03-04T06:54:58.862Z,15.02
2018-03-04T06:57:27.349Z,14.52
2018-03-04T06:59:54.934Z,15.07
2018-03-04T07:02:23.351Z,14.65
2018-03-04T07:04:51.115Z,17.00
2018-03-04T07:07:19.458Z,14.60
2018-03-04T07:09:48.084Z,16.23
2018-03-04T07:12:15.643Z,16.33
2018-03-04T07:14:43.248Z,15.73
2018-03-04T07:17:10.893Z,14.40
2018-03-04T07:19:38.456Z,15.82
2018-03-04T07:22:06.119Z,15.10
2018-03-04T07:24:34.501Z,14.13
2018-03-04T07:27:02.167Z,14.77
2018-03-04T07:29:30.652Z,14.10
2018-03-04T07:31:58.245Z,12.70
2018-03-04T07:34:26.445Z,13.95
2018-03-04T07:36:54.069Z,12.30
2018-03-04T07:39:21.963Z,12.75
2018-03-04T07:41:49.896Z,11.10
2018-03-04T07:44:18.497Z,12.50
2018-03-04T07:46:47.200Z,10.98
2018-03-04T07:49:15.046Z,10.23
2018-03-04T07:51:42.671Z,11.00
2018-03-04T07:54:10.406Z,10.50
2018-03-04T07:56:38.038Z,10.65
2018-03-04T07:59:05.592Z,10.43
2018-03-04T08:01:33.396Z,9.07
2018-03-04T08:04:00.972Z,8.82
2018-03-04T08:06:28.756Z,9.70
2018-03-04T08:09:08.394Z,9.93
2018-03-04T08:11:37.806Z,9.30
2018-03-04T08:14:11.926Z,8.50
2018-03-04T08:16:40.152Z,8.00
2018-03-04T08:19:08.423Z,9.40
2018-03-04T08:21:36.184Z,8.30
2018-03-04T08:24:03.776Z,8.27
2018-03-04T08:26:43.486Z,7.55
2018-03-04T08:29:11.057Z,7.90
2018-03-04T08:31:38.838Z,8.00
2018-03-04T08:34:07.372Z,8.00
2018-03-04T08:36:35.689Z,7.28
2018-03-04T08:39:03.337Z,7.18
2018-03-04T08:41:32.661Z,8.48
2018-03-04T08:44:00.215Z,7.15
2018-03-04T08:46:27.864Z,7.75
2018-03-04T08:48:55.450Z,6.80
2018-03-04T08:51:23.013Z,6.25
2018-03-04T08:53:51.482Z,7.18
2018-03-04T08:56:19.345Z,7.97
2018-03-04T08:58:50.933Z,6.90
2018-03-04T09:01:18.670Z,6.53
2018-03-04T09:03:46.570Z,6.67
2018-03-04T09:06:20.043Z,5.57
2018-03-04T09:08:52.471Z,5.97
2018-03-04T09:11:24.039Z,5.70
2018-03-04T09:13:55.010Z,5.45
2018-03-04T09:16:25.223Z,5.43
2018-03-04T09:18:57.860Z,5.90
2018-03-04T09:21:27.420Z,4.87
2018-03-04T09:24:02.420Z,6.57
2018-03-04T09:26:31.173Z,5.07
2018-03-04T09:29:01.088Z,5.13
2018-03-04T09:31:29.327Z,5.00
2018-03-04T09:33:57.805Z,6.10
2018-03-04T09:36:25.665Z,5.20
2018-03-04T09:38:56.461Z,5.83
2018-03-04T09:41:24.967Z,5.83
2018-03-04T09:43:53.214Z,5.50
2018-03-04T09:46:21.074Z,5.40
2018-03-04T09:48:51.222Z,5.20
2018-03-04T09:51:22.382Z,5.67
2018-03-04T09:53:49.999Z,4.63
2018-03-04T09:56:17.625Z,4.90
2018-03-04T09:58:45.371Z,4.40
2018-03-04T10:01:13.102Z,5.00
2018-03-04T10:03:40.642Z,4.97
2018-03-04T10:06:09.042Z,4.80
2018-03-04T10:08:36.686Z,5.00
2018-03-04T10:11:05.163Z,4.60
2018-03-04T10:13:33.550Z,4.40
2018-03-04T10:16:01.929Z,5.80
2018-03-04T10:18:30.237Z,4.73
2018-03-04T10:20:57.777Z,4.73
2018-03-04T10:23:25.330Z,5.47
2018-03-04T10:25:53.603Z,4.70
2018-03-04T10:28:21.131Z,5.17
2018-03-04T10:30:48.679Z,5.70
2018-03-04T10:33:17.089Z,5.73
2018-03-04T10:35:44.687Z,5.93
2018-03-04T10:38:12.352Z,6.13
2018-03-04T10:40:40.034Z,6.00
2018-03-04T10:43:07.570Z,6.10
2018-03-04T10:45:35.135Z,6.10
2018-03-04T10:48:02.737Z,7.13
2018-03-04T10:50:30.355Z,4.90
2018-03-04T10:52:57.949Z,5.70
2018-03-04T10:55:25.595Z,8.10
2018-03-04T10:57:53.211Z,5.40
2018-03-04T11:00:24.929Z,5.40
2018-03-04T11:02:52.479Z,5.70
2018-03-04T11:05:21.594Z,6.80
2018-03-04T11:07:49.147Z,5.37
2018-03-04T11:10:16.774Z,5.90
2018-03-04T11:12:44.312Z,5.60
2018-03-04T11:15:11.904Z,5.70
2018-03-04T11:17:39.477Z,5.43
2018-03-04T11:20:07.207Z,6.50
2018-03-04T11:22:34.760Z,5.80
2018-03-04T11:25:03.536Z,6.17
2018-03-04T11:27:31.888Z,6.33
2018-03-04T11:30:00.869Z,6.00
2018-03-04T11:32:31.094Z,6.10
2018-03-04T11:35:01.002Z,6.23
2018-03-04T11:37:28.567Z,6.20
2018-03-04T11:39:56.538Z,5.80
2018-03-04T11:42:24.132Z,6.40
2018-03-04T11:44:52.475Z,6.73
2018-03-04T11:47:20.026Z,5.93
2018-03-04T11:49:47.713Z,6.00
2018-03-04T11:52:15.295Z,5.63
2018-03-04T11:54:42.922Z,5.43
2018-03-04T11:57:11.236Z,6.73
2018-03-04T11:59:38.801Z,6.40
2018-03-04T12:02:06.356Z,6.57
2018-03-04T12:04:33.896Z,6.70
2018-03-04T12:07:01.743Z,6.80
2018-03-04T12:09:29.346Z,6.87
2018-03-04T12:11:57.004Z,6.00
2018-03-04T12:14:24.595Z,6.93
2018-03-04T12:16:52.216Z,6.80
2018-03-04T12:19:19.868Z,7.13
2018-03-04T12:21:47.459Z,6.40
2018-03-04T12:24:15.797Z,5.80
2018-03-04T12:26:44.177Z,6.20
2018-03-04T12:29:11.914Z,6.20
2018-03-04T12:31:39.481Z,6.20
2018-03-04T12:34:07.077Z,6.10
2018-03-04T12:36:34.781Z,5.70
2018-03-04T12:39:02.415Z,5.50
2018-03-04T12:41:29.976Z,6.10
2018-03-04T12:43:57.558Z,6.53
2018-03-04T12:46:25.155Z,5.30
2018-03-04T12:48:52.914Z,4.90
2018-03-04T12:51:20.425Z,6.17
2018-03-04T12:53:48.026Z,5.30
2018-03-04T12:56:15.550Z,5.70
2018-03-04T12:58:43.160Z,5.17
2018-03-04T13:01:11.653Z,5.97
2018-03-04T13:03:39.263Z,5.70
2018-03-04T13:06:07.024Z,5.90
2018-03-04T13:08:34.564Z,4.10
2018-03-04T13:11:02.146Z,6.13
2018-03-04T13:13:30.017Z,4.80
2018-03-04T13:15:57.615Z,4.53
2018-03-04T13:18:25.283Z,5.25
2018-03-04T13:20:53.827Z,5.87
2018-03-04T13:23:21.526Z,4.50
2018-03-04T13:25:49.293Z,5.18
2018-03-04T13:28:17.685Z,5.00
2018-03-04T13:30:45.432Z,4.50
2018-03-04T13:33:13.255Z,4.40
2018-03-04T13:35:42.466Z,4.60
2018-03-04T13:38:10.663Z,4.93
2018-03-04T13:40:38.322Z,4.78
2018-03-04T13:43:05.956Z,4.62
2018-03-04T13:45:33.547Z,4.43
2018-03-04T13:48:01.257Z,4.00
2018-03-04T13:50:28.837Z,4.43
2018-03-04T13:52:56.612Z,4.85
2018-03-04T13:55:24.179Z,5.00
2018-03-04T13:57:51.795Z,4.85
2018-03-04T14:00:19.324Z,4.30
2018-03-04T14:02:46.955Z,4.93
2018-03-04T14:05:14.536Z,4.53
2018-03-04T14:07:42.234Z,4.57
2018-03-04T14:10:10.142Z,5.30
2018-03-04T14:12:40.090Z,4.53
2018-03-04T14:15:07.682Z,4.80
2018-03-04T14:17:35.259Z,5.53
2018-03-04T14:20:02.939Z,4.43
2018-03-04T14:22:30.513Z,4.70
2018-03-04T14:24:59.678Z,5.10
2018-03-04T14:27:27.263Z,4.62
2018-03-04T14:29:54.786Z,5.20
2018-03-04T14:32:22.335Z,4.43
2018-03-04T14:34:57.964Z,4.90
2018-03-04T14:37:30.555Z,4.55
2018-03-04T14:39:59.000Z,4.70
2018-03-04T14:42:29.206Z,4.18
2018-03-04T14:44:57.038Z,5.15
2018-03-04T14:47:24.619Z,5.12
2018-03-04T14:49:53.214Z,4.60
2018-03-04T14:52:23.266Z,4.40
2018-03-04T14:54:51.302Z,4.30
2018-03-04T14:57:19.338Z,4.80
2018-03-04T14:59:47.837Z,4.75
2018-03-04T15:02:15.568Z,4.10
2018-03-04T15:04:43.247Z,4.20
2018-03-04T15:07:10.824Z,4.60
2018-03-04T15:09:38.466Z,4.37
2018-03-04T15:12:06.034Z,5.65
2018-03-04T15:14:33.607Z,4.55
2018-03-04T15:17:01.225Z,4.87
2018-03-04T15:19:28.891Z,4.47
2018-03-04T15:21:56.488Z,3.37
2018-03-04T15:24:24.120Z,3.45
2018-03-04T15:26:52.431Z,2.83
2018-03-04T15:29:20.036Z,2.40
2018-03-04T15:31:48.400Z,2.35
2018-03-04T15:34:15.994Z,2.42
2018-03-04T15:36:43.586Z,2.60
2018-03-04T15:39:26.747Z,2.00
2018-03-04T15:41:54.311Z,2.05
2018-03-04T15:44:22.702Z,2.58
2018-03-04T15:47:02.146Z,3.15
2018-03-04T15:49:30.452Z,2.90
2018-03-04T15:52:00.152Z,2.70
2018-03-04T15:54:34.950Z,3.10
2018-03-04T15:57:04.413Z,2.72
2018-03-04T15:59:32.017Z,2.83
2018-03-04T16:02:14.570Z,2.80
2018-03-04T16:04:57.853Z,2.83
2018-03-04T16:07:25.444Z,3.30
2018-03-04T16:09:55.035Z,3.67
2018-03-04T16:12:32.752Z,4.28
2018-03-04T16:15:02.239Z,4.68
2018-03-04T16:20:31.532Z,5.25
2018-03-04T16:23:00.455Z,5.62
2018-03-04T16:25:41.799Z,5.90
2018-03-04T16:28:14.872Z,6.78
2018-03-04T16:30:42.432Z,6.60
2018-03-04T16:33:09.951Z,7.90
2018-03-04T16:35:37.503Z,7.93
2018-03-04T16:38:05.879Z,8.05
2018-03-04T16:40:34.259Z,9.60
2018-03-04T16:43:01.853Z,9.35
2018-03-04T16:45:29.428Z,10.45
2018-03-04T16:47:57.094Z,8.85
2018-03-04T16:50:24.600Z,10.30
2018-03-04T16:52:53.020Z,9.40
2018-03-04T16:55:20.661Z,9.43
2018-03-04T16:57:48.338Z,10.40
2018-03-04T17:00:16.128Z,9.70
2018-03-04T17:02:43.650Z,10.60
2018-03-04T17:05:11.273Z,10.70
2018-03-04T17:07:39.010Z,11.02
2018-03-04T17:10:06.655Z,10.18
2018-03-04T17:12:34.191Z,11.18
2018-03-04T17:15:01.781Z,11.25
2018-03-04T17:17:29.413Z,12.25
2018-03-04T17:19:56.926Z,12.35
2018-03-04T17:22:24.488Z,12.95
2018-03-04T17:24:52.018Z,12.77
2018-03-04T17:27:19.530Z,14.50
2018-03-04T17:29:47.823Z,14.32
2018-03-04T17:32:17.634Z,15.65
2018-03-04T17:34:45.179Z,14.13
2018-03-04T17:37:12.744Z,16.10
2018-03-04T17:39:41.010Z,16.92
2018-03-04T17:42:09.404Z,15.80
2018-03-04T17:44:37.748Z,17.73
2018-03-04T17:47:05.287Z,15.30
2018-03-04T17:49:32.824Z,15.75
2018-03-04T17:52:00.341Z,16.80
2018-03-04T17:54:27.951Z,17.62
2018-03-04T17:56:55.484Z,17.55
2018-03-04T17:59:23.045Z,17.95
2018-03-04T18:01:50.592Z,20.10
2018-03-04T18:04:18.228Z,19.60
2018-03-04T18:06:45.829Z,19.60
2018-03-04T18:09:13.426Z,20.35
2018-03-04T18:11:41.097Z,20.65
2018-03-04T18:14:08.587Z,23.12
2018-03-04T18:16:36.875Z,22.13
2018-03-04T18:19:05.243Z,20.60
2018-03-04T18:21:32.983Z,21.12
2018-03-04T18:24:00.705Z,22.80
2018-03-04T18:26:28.394Z,20.73
2018-03-04T18:28:56.816Z,21.55
2018-03-04T18:31:25.277Z,21.85
2018-03-04T18:33:52.825Z,19.75
2018-03-04T18:36:22.817Z,21.55
2018-03-04T18:38:51.183Z,20.67
2018-03-04T18:41:18.780Z,19.05
2018-03-04T18:43:46.454Z,20.60
2018-03-04T18:46:13.974Z,18.20
2018-03-04T18:48:41.516Z,16.08
2018-03-04T18:51:09.127Z,14.15
2018-03-04T18:53:36.691Z,15.57
2018-03-04T18:56:04.257Z,16.65
2018-03-04T18:58:33.577Z,14.68
2018-03-04T19:01:01.117Z,15.60
2018-03-04T19:03:28.605Z,14.18
2018-03-04T19:05:58.824Z,16.23
2018-03-04T19:08:30.254Z,13.43
2018-03-04T19:10:58.551Z,13.27
2018-03-04T19:13:26.093Z,12.48
2018-03-04T19:15:53.983Z,14.45
2018-03-04T19:18:22.527Z,12.40
2018-03-04T19:20:50.131Z,12.70
2018-03-04T19:23:17.622Z,11.40
2018-03-04T19:25:45.145Z,12.57
2018-03-04T19:28:13.546Z,12.25
2018-03-04T19:30:41.046Z,9.88
2018-03-04T19:33:08.644Z,9.57
2018-03-04T19:35:36.163Z,9.70
2018-03-04T19:38:03.662Z,9.75
2018-03-04T19:40:31.148Z,8.20
2018-03-04T19:42:58.700Z,9.45
2018-03-04T19:45:26.290Z,11.23
2018-03-04T19:47:53.836Z,10.93
2018-03-04T19:50:21.387Z,11.50
2018-03-04T19:52:48.997Z,10.35
2018-03-04T19:55:16.604Z,11.85
2018-03-04T19:57:44.221Z,10.77
2018-03-04T20:00:12.589Z,11.40
2018-03-04T20:02:40.261Z,10.65
2018-03-04T20:05:08.178Z,10.40
2018-03-04T20:07:36.151Z,11.27
2018-03-04T20:10:04.604Z,10.15
2018-03-04T20:12:32.238Z,10.15
2018-03-04T20:15:01.077Z,8.93
2018-03-04T20:17:29.977Z,8.98
2018-03-04T20:19:59.475Z,8.60
2018-03-04T20:22:28.775Z,9.68
2018-03-04T20:24:57.658Z,7.28
2018-03-04T20:27:27.614Z,8.90
2018-03-04T20:29:56.206Z,8.73
2018-03-04T20:32:24.623Z,7.90
2018-03-04T20:35:02.214Z,7.10
2018-03-04T20:37:48.347Z,7.82
2018-03-04T20:40:18.503Z,8.13
2018-03-04T20:42:49.292Z,7.50
2018-03-04T20:45:30.168Z,6.72
2018-03-04T20:48:04.845Z,7.47
2018-03-04T20:50:34.697Z,8.23
2018-03-04T20:53:05.177Z,7.47
2018-03-04T20:55:33.214Z,7.97
2018-03-04T20:58:01.677Z,6.87
2018-03-04T21:00:30.850Z,7.57
2018-03-04T21:03:00.865Z,9.38
2018-03-04T21:05:33.521Z,9.00
2018-03-04T21:08:04.550Z,10.32
2018-03-04T21:10:39.864Z,10.38
2018-03-04T21:13:07.964Z,11.40
2018-03-04T21:15:41.588Z,12.90
2018-03-04T21:18:10.829Z,11.50
2018-03-04T21:20:38.464Z,12.15
2018-03-04T21:23:06.018Z,13.05
2018-03-04T21:25:33.612Z,13.10
2018-03-04T21:28:01.749Z,15.43
2018-03-04T21:30:30.831Z,16.77
2018-03-04T21:33:00.975Z,15.75
2018-03-04T21:35:30.170Z,18.15
2018-03-04T21:37:58.044Z,18.27
2018-03-04T21:40:25.640Z,19.83
2018-03-04T21:42:53.458Z,18.58
2018-03-04T21:45:22.396Z,18.42
2018-03-04T21:47:49.919Z,19.83
2018-03-04T21:50:19.278Z,19.48
2018-03-04T21:52:49.502Z,20.08
2018-03-04T21:55:19.731Z,20.17
2018-03-04T21:57:48.239Z,18.67
2018-03-04T22:00:19.678Z,20.65
2018-03-04T22:02:48.408Z,21.52
2018-03-04T22:05:17.572Z,20.75
2018-03-04T22:07:49.522Z,19.87
2018-03-04T22:10:20.305Z,20.25
2018-03-04T22:12:56.142Z,21.55
2018-03-04T22:15:25.420Z,22.40
2018-03-04T22:17:54.742Z,19.85
2018-03-04T22:20:24.549Z,19.37
2018-03-04T22:22:53.890Z,21.73
2018-03-04T22:25:21.431Z,21.83
2018-03-04T22:27:49.018Z,20.33
2018-03-04T22:30:16.760Z,20.92
2018-03-04T22:32:46.959Z,21.40
2018-03-04T22:35:14.497Z,21.73
2018-03-04T22:37:42.962Z,22.55
2018-03-04T22:40:10.515Z,22.30
2018-03-04T22:42:38.090Z,23.10
2018-03-04T22:45:05.676Z,22.45
2018-03-04T22:47:33.338Z,22.77
2018-03-04T22:50:00.885Z,23.40
2018-03-04T22:52:28.453Z,22.08
2018-03-04T22:54:56.764Z,23.23
2018-03-04T22:57:24.449Z,21.33
2018-03-04T22:59:53.479Z,23.55
2018-03-04T23:02:21.256Z,23.42
2018-03-04T23:04:49.729Z,23.92
2018-03-04T23:07:18.112Z,22.10
2018-03-04T23:09:45.738Z,24.30
2018-03-04T23:12:14.469Z,25.42
2018-03-04T23:14:43.973Z,22.50
2018-03-04T23:17:13.490Z,25.60
2018-03-04T23:19:41.075Z,26.85
2018-03-04T23:22:08.572Z,26.20
2018-03-04T23:24:36.867Z,24.65
2018-03-04T23:27:06.022Z,24.45
2018-03-04T23:29:33.579Z,28.05
2018-03-04T23:32:02.131Z,25.77
2018-03-04T23:34:30.092Z,27.08
2018-03-04T23:36:57.672Z,27.58
2018-03-04T23:39:25.301Z,32.10
2018-03-04T23:41:53.654Z,27.25
2018-03-04T23:44:22.047Z,25.75
2018-03-04T23:46:49.622Z,29.17
2018-03-04T23:49:17.255Z,26.95
2018-03-04T23:51:44.790Z,28.10
2018-03-04T23:54:12.414Z,31.10
2018-03-04T23:56:40.012Z,28.27
2018-03-04T23:59:07.574Z,27.87
